sensor_id;sensor_type;location;lat;lon;timestamp;P1;durP1;ratioP1;P2;durP2;ratioP2
14139;SDS011;7150;53.514;9.988;2023-07-02T00:00:35;9.93;;;2.17;;
14139;SDS011;7150;53.514;9.988;2023-07-02T00:03:03;8.43;;;2.67;;
14139;SDS011;7150;53.514;9.988;2023-07-02T00:05:29;4.57;;;1.83;;
14139;SDS011;7150;53.514;9.988;2023-07-02T00:07:54;4.57;;;2.20;;
14139;SDS011;7150;53.514;9.988;2023-07-02T00:10:20;7.93;;;2.13;;
14139;SDS011;7150;53.514;9.988;2023-07-02T00:12:45;3.90;;;2.30;;
14139;SDS011;7150;53.514;9.988;2023-07-02T00:15:11;6.37;;;2.33;;
14139;SDS011;7150;53.514;9.988;2023-07-02T00:17:36;5.10;;;2.50;;
14139;SDS011;7150;53.514;9.988;2023-07-02T00:20:04;10.03;;;2.50;;
14139;SDS011;7150;53.514;9.988;2023-07-02T00:22:31;4.97;;;2.17;;
14139;SDS011;7150;53.514;9.988;2023-07-02T00:25:01;4.23;;;2.10;;
14139;SDS011;7150;53.514;9.988;2023-07-02T00:27:26;3.57;;;2.20;;
14139;SDS011;7150;53.514;9.988;2023-07-02T00:29:52;5.30;;;2.60;;
14139;SDS011;7150;53.514;9.988;2023-07-02T00:32:17;5.10;;;2.40;;
14139;SDS011;7150;53.514;9.988;2023-07-02T00:34:43;8.93;;;2.70;;
14139;SDS011;7150;53.514;9.988;2023-07-02T00:37:08;5.27;;;2.57;;
14139;SDS011;7150;53.514;9.988;2023-07-02T00:39:34;7.10;;;2.27;;
14139;SDS011;7150;53.514;9.988;2023-07-02T00:42:00;4.90;;;2.30;;
14139;SDS011;7150;53.514;9.988;2023-07-02T00:44:29;5.00;;;2.70;;
14139;SDS011;7150;53.514;9.988;2023-07-02T00:46:54;6.03;;;2.70;;
14139;SDS011;7150;53.514;9.988;2023-07-02T00:49:20;3.47;;;2.07;;
14139;SDS011;7150;53.514;9.988;2023-07-02T00:51:46;4.93;;;2.30;;
14139;SDS011;7150;53.514;9.988;2023-07-02T00:54:11;5.03;;;2.40;;
14139;SDS011;7150;53.514;9.988;2023-07-02T00:56:37;6.20;;;2.27;;
14139;SDS011;7150;53.514;9.988;2023-07-02T00:59:02;4.03;;;2.30;;
14139;SDS011;7150;53.514;9.988;2023-07-02T01:01:28;7.07;;;2.90;;
14139;SDS011;7150;53.514;9.988;2023-07-02T01:03:58;4.77;;;2.20;;
14139;SDS011;7150;53.514;9.988;2023-07-02T01:06:29;6.93;;;2.50;;
14139;SDS011;7150;53.514;9.988;2023-07-02T01:09:00;5.50;;;2.53;;
14139;SDS011;7150;53.514;9.988;2023-07-02T01:11:34;5.90;;;2.73;;
14139;SDS011;7150;53.514;9.988;2023-07-02T01:14:07;3.83;;;2.50;;
14139;SDS011;7150;53.514;9.988;2023-07-02T01:16:33;6.07;;;2.20;;
14139;SDS011;7150;53.514;9.988;2023-07-02T01:19:01;5.90;;;2.50;;
14139;SDS011;7150;53.514;9.988;2023-07-02T01:21:30;4.40;;;2.30;;
14139;SDS011;7150;53.514;9.988;2023-07-02T01:23:57;6.83;;;2.33;;
14139;SDS011;7150;53.514;9.988;2023-07-02T01:26:27;3.50;;;2.50;;
14139;SDS011;7150;53.514;9.988;2023-07-02T01:28:58;6.67;;;2.70;;
14139;SDS011;7150;53.514;9.988;2023-07-02T01:31:24;7.03;;;2.87;;
14139;SDS011;7150;53.514;9.988;2023-07-02T01:33:50;5.83;;;2.80;;
14139;SDS011;7150;53.514;9.988;2023-07-02T01:36:16;8.77;;;3.27;;
14139;SDS011;7150;53.514;9.988;2023-07-02T01:38:42;5.93;;;2.70;;
14139;SDS011;7150;53.514;9.988;2023-07-02T01:41:07;7.03;;;2.70;;
14139;SDS011;7150;53.514;9.988;2023-07-02T01:43:33;6.97;;;3.33;;
14139;SDS011;7150;53.514;9.988;2023-07-02T01:45:58;8.10;;;3.13;;
14139;SDS011;7150;53.514;9.988;2023-07-02T01:48:24;9.37;;;2.80;;
14139;SDS011;7150;53.514;9.988;2023-07-02T01:50:50;6.87;;;2.60;;
14139;SDS011;7150;53.514;9.988;2023-07-02T01:53:15;7.47;;;3.17;;
14139;SDS011;7150;53.514;9.988;2023-07-02T01:55:41;4.10;;;3.00;;
14139;SDS011;7150;53.514;9.988;2023-07-02T01:58:06;6.73;;;3.30;;
14139;SDS011;7150;53.514;9.988;2023-07-02T02:00:32;5.77;;;3.27;;
14139;SDS011;7150;53.514;9.988;2023-07-02T02:02:57;5.70;;;3.20;;
14139;SDS011;7150;53.514;9.988;2023-07-02T02:05:23;6.63;;;2.90;;
14139;SDS011;7150;53.514;9.988;2023-07-02T02:07:48;4.67;;;2.97;;
14139;SDS011;7150;53.514;9.988;2023-07-02T02:10:14;7.17;;;3.40;;
14139;SDS011;7150;53.514;9.988;2023-07-02T02:12:39;6.43;;;2.80;;
14139;SDS011;7150;53.514;9.988;2023-07-02T02:15:05;6.33;;;3.10;;
14139;SDS011;7150;53.514;9.988;2023-07-02T02:17:31;11.13;;;3.43;;
14139;SDS011;7150;53.514;9.988;2023-07-02T02:19:57;5.83;;;3.00;;
14139;SDS011;7150;53.514;9.988;2023-07-02T02:22:22;5.10;;;2.97;;
14139;SDS011;7150;53.514;9.988;2023-07-02T02:24:48;6.47;;;3.00;;
14139;SDS011;7150;53.514;9.988;2023-07-02T02:27:13;7.63;;;3.27;;
14139;SDS011;7150;53.514;9.988;2023-07-02T02:29:39;5.23;;;3.00;;
14139;SDS011;7150;53.514;9.988;2023-07-02T02:32:04;6.80;;;3.10;;
14139;SDS011;7150;53.514;9.988;2023-07-02T02:34:30;10.00;;;3.00;;
14139;SDS011;7150;53.514;9.988;2023-07-02T02:36:55;8.67;;;3.13;;
14139;SDS011;7150;53.514;9.988;2023-07-02T02:39:21;8.23;;;3.07;;
14139;SDS011;7150;53.514;9.988;2023-07-02T02:41:47;6.70;;;2.93;;
14139;SDS011;7150;53.514;9.988;2023-07-02T02:44:12;6.57;;;2.70;;
14139;SDS011;7150;53.514;9.988;2023-07-02T02:46:38;8.17;;;2.90;;
14139;SDS011;7150;53.514;9.988;2023-07-02T02:49:03;5.00;;;2.80;;
14139;SDS011;7150;53.514;9.988;2023-07-02T02:51:29;6.77;;;3.10;;
14139;SDS011;7150;53.514;9.988;2023-07-02T02:53:54;11.23;;;3.30;;
14139;SDS011;7150;53.514;9.988;2023-07-02T02:56:20;6.00;;;2.77;;
14139;SDS011;7150;53.514;9.988;2023-07-02T02:58:45;7.43;;;3.27;;
14139;SDS011;7150;53.514;9.988;2023-07-02T03:01:11;9.97;;;2.70;;
14139;SDS011;7150;53.514;9.988;2023-07-02T03:03:40;6.83;;;3.80;;
14139;SDS011;7150;53.514;9.988;2023-07-02T03:06:09;6.03;;;3.50;;
14139;SDS011;7150;53.514;9.988;2023-07-02T03:08:36;5.53;;;3.23;;
14139;SDS011;7150;53.514;9.988;2023-07-02T03:11:01;6.63;;;3.17;;
14139;SDS011;7150;53.514;9.988;2023-07-02T03:13:27;6.57;;;3.83;;
14139;SDS011;7150;53.514;9.988;2023-07-02T03:15:52;7.27;;;3.03;;
14139;SDS011;7150;53.514;9.988;2023-07-02T03:18:18;9.23;;;3.87;;
14139;SDS011;7150;53.514;9.988;2023-07-02T03:20:43;6.87;;;3.50;;
14139;SDS011;7150;53.514;9.988;2023-07-02T03:23:09;8.77;;;3.07;;
14139;SDS011;7150;53.514;9.988;2023-07-02T03:25:34;8.37;;;3.43;;
14139;SDS011;7150;53.514;9.988;2023-07-02T03:28:00;8.20;;;3.63;;
14139;SDS011;7150;53.514;9.988;2023-07-02T03:30:25;7.23;;;3.50;;
14139;SDS011;7150;53.514;9.988;2023-07-02T03:32:51;8.70;;;3.30;;
14139;SDS011;7150;53.514;9.988;2023-07-02T03:35:16;12.90;;;3.87;;
14139;SDS011;7150;53.514;9.988;2023-07-02T03:37:42;5.43;;;3.40;;
14139;SDS011;7150;53.514;9.988;2023-07-02T03:40:08;11.57;;;3.60;;
14139;SDS011;7150;53.514;9.988;2023-07-02T03:42:34;10.40;;;4.10;;
14139;SDS011;7150;53.514;9.988;2023-07-02T03:45:00;6.70;;;3.43;;
14139;SDS011;7150;53.514;9.988;2023-07-02T03:47:25;9.00;;;3.60;;
14139;SDS011;7150;53.514;9.988;2023-07-02T03:49:50;6.63;;;3.33;;
14139;SDS011;7150;53.514;9.988;2023-07-02T03:52:16;7.90;;;3.70;;
14139;SDS011;7150;53.514;9.988;2023-07-02T03:54:41;10.67;;;3.73;;
14139;SDS011;7150;53.514;9.988;2023-07-02T03:57:07;7.23;;;3.90;;
14139;SDS011;7150;53.514;9.988;2023-07-02T03:59:33;7.70;;;3.60;;
14139;SDS011;7150;53.514;9.988;2023-07-02T04:01:59;10.23;;;3.90;;
14139;SDS011;7150;53.514;9.988;2023-07-02T04:04:24;9.97;;;3.80;;
14139;SDS011;7150;53.514;9.988;2023-07-02T04:06:50;12.40;;;4.27;;
14139;SDS011;7150;53.514;9.988;2023-07-02T04:09:15;10.13;;;3.63;;
14139;SDS011;7150;53.514;9.988;2023-07-02T04:11:41;8.07;;;3.63;;
14139;SDS011;7150;53.514;9.988;2023-07-02T04:14:06;10.63;;;3.80;;
14139;SDS011;7150;53.514;9.988;2023-07-02T04:16:32;14.17;;;4.77;;
14139;SDS011;7150;53.514;9.988;2023-07-02T04:18:57;9.27;;;4.00;;
14139;SDS011;7150;53.514;9.988;2023-07-02T04:21:23;8.77;;;4.33;;
14139;SDS011;7150;53.514;9.988;2023-07-02T04:23:48;9.87;;;4.63;;
14139;SDS011;7150;53.514;9.988;2023-07-02T04:26:14;10.87;;;4.20;;
14139;SDS011;7150;53.514;9.988;2023-07-02T04:28:39;7.80;;;3.47;;
14139;SDS011;7150;53.514;9.988;2023-07-02T04:31:05;8.53;;;3.77;;
14139;SDS011;7150;53.514;9.988;2023-07-02T04:33:30;10.67;;;4.53;;
14139;SDS011;7150;53.514;9.988;2023-07-02T04:36:00;8.67;;;4.50;;
14139;SDS011;7150;53.514;9.988;2023-07-02T04:38:29;10.90;;;4.47;;
14139;SDS011;7150;53.514;9.988;2023-07-02T04:40:54;10.17;;;3.90;;
14139;SDS011;7150;53.514;9.988;2023-07-02T04:43:26;10.53;;;5.00;;
14139;SDS011;7150;53.514;9.988;2023-07-02T04:45:54;15.50;;;4.70;;
14139;SDS011;7150;53.514;9.988;2023-07-02T04:48:20;12.43;;;5.03;;
14139;SDS011;7150;53.514;9.988;2023-07-02T04:50:45;11.50;;;5.37;;
14139;SDS011;7150;53.514;9.988;2023-07-02T04:53:11;17.40;;;5.20;;
14139;SDS011;7150;53.514;9.988;2023-07-02T04:55:36;13.27;;;5.23;;
14139;SDS011;7150;53.514;9.988;2023-07-02T04:58:02;14.97;;;4.80;;
14139;SDS011;7150;53.514;9.988;2023-07-02T05:00:27;13.43;;;5.53;;
14139;SDS011;7150;53.514;9.988;2023-07-02T05:02:53;11.23;;;4.67;;
14139;SDS011;7150;53.514;9.988;2023-07-02T05:05:18;13.47;;;5.20;;
14139;SDS011;7150;53.514;9.988;2023-07-02T05:07:44;13.33;;;5.20;;
14139;SDS011;7150;53.514;9.988;2023-07-02T05:10:10;13.30;;;5.50;;
14139;SDS011;7150;53.514;9.988;2023-07-02T05:12:35;12.07;;;6.00;;
14139;SDS011;7150;53.514;9.988;2023-07-02T05:15:01;14.73;;;5.47;;
14139;SDS011;7150;53.514;9.988;2023-07-02T05:17:26;13.53;;;6.40;;
14139;SDS011;7150;53.514;9.988;2023-07-02T05:19:52;14.47;;;5.40;;
14139;SDS011;7150;53.514;9.988;2023-07-02T05:22:17;19.93;;;6.97;;
14139;SDS011;7150;53.514;9.988;2023-07-02T05:24:44;19.20;;;6.40;;
14139;SDS011;7150;53.514;9.988;2023-07-02T05:27:09;14.77;;;5.83;;
14139;SDS011;7150;53.514;9.988;2023-07-02T05:29:35;15.50;;;5.40;;
14139;SDS011;7150;53.514;9.988;2023-07-02T05:32:00;15.67;;;6.00;;
14139;SDS011;7150;53.514;9.988;2023-07-02T05:34:25;14.97;;;6.30;;
14139;SDS011;7150;53.514;9.988;2023-07-02T05:36:51;15.53;;;6.03;;
14139;SDS011;7150;53.514;9.988;2023-07-02T05:39:16;14.77;;;5.97;;
14139;SDS011;7150;53.514;9.988;2023-07-02T05:41:42;15.27;;;5.70;;
14139;SDS011;7150;53.514;9.988;2023-07-02T05:44:07;15.30;;;6.03;;
14139;SDS011;7150;53.514;9.988;2023-07-02T05:46:33;20.33;;;5.53;;
14139;SDS011;7150;53.514;9.988;2023-07-02T05:48:58;22.17;;;5.23;;
14139;SDS011;7150;53.514;9.988;2023-07-02T05:51:24;14.63;;;5.57;;
14139;SDS011;7150;53.514;9.988;2023-07-02T05:53:50;20.43;;;6.17;;
14139;SDS011;7150;53.514;9.988;2023-07-02T05:56:17;20.67;;;6.20;;
14139;SDS011;7150;53.514;9.988;2023-07-02T05:58:43;14.23;;;6.63;;
14139;SDS011;7150;53.514;9.988;2023-07-02T06:01:08;15.60;;;6.13;;
14139;SDS011;7150;53.514;9.988;2023-07-02T06:03:34;14.17;;;6.10;;
14139;SDS011;7150;53.514;9.988;2023-07-02T06:05:59;17.63;;;6.23;;
14139;SDS011;7150;53.514;9.988;2023-07-02T06:08:25;22.37;;;6.57;;
14139;SDS011;7150;53.514;9.988;2023-07-02T06:10:50;17.03;;;6.13;;
14139;SDS011;7150;53.514;9.988;2023-07-02T06:13:16;13.97;;;6.30;;
14139;SDS011;7150;53.514;9.988;2023-07-02T06:15:42;17.67;;;7.00;;
14139;SDS011;7150;53.514;9.988;2023-07-02T06:18:07;19.33;;;6.30;;
14139;SDS011;7150;53.514;9.988;2023-07-02T06:20:33;19.53;;;7.53;;
14139;SDS011;7150;53.514;9.988;2023-07-02T06:22:58;27.23;;;8.13;;
14139;SDS011;7150;53.514;9.988;2023-07-02T06:25:24;15.80;;;6.60;;
14139;SDS011;7150;53.514;9.988;2023-07-02T06:27:49;26.70;;;7.10;;
14139;SDS011;7150;53.514;9.988;2023-07-02T06:30:15;16.67;;;7.03;;
14139;SDS011;7150;53.514;9.988;2023-07-02T06:32:40;17.07;;;6.87;;
14139;SDS011;7150;53.514;9.988;2023-07-02T06:35:06;19.23;;;7.37;;
14139;SDS011;7150;53.514;9.988;2023-07-02T06:37:32;24.73;;;6.53;;
14139;SDS011;7150;53.514;9.988;2023-07-02T06:39:58;17.80;;;6.07;;
14139;SDS011;7150;53.514;9.988;2023-07-02T06:42:24;22.17;;;6.53;;
14139;SDS011;7150;53.514;9.988;2023-07-02T06:44:50;21.00;;;7.17;;
14139;SDS011;7150;53.514;9.988;2023-07-02T06:47:16;18.17;;;6.67;;
14139;SDS011;7150;53.514;9.988;2023-07-02T06:49:42;22.97;;;7.73;;
14139;SDS011;7150;53.514;9.988;2023-07-02T06:52:07;18.47;;;6.30;;
14139;SDS011;7150;53.514;9.988;2023-07-02T06:54:33;18.43;;;6.87;;
14139;SDS011;7150;53.514;9.988;2023-07-02T06:56:59;22.47;;;7.30;;
14139;SDS011;7150;53.514;9.988;2023-07-02T06:59:24;18.77;;;6.83;;
14139;SDS011;7150;53.514;9.988;2023-07-02T07:01:50;25.80;;;6.63;;
14139;SDS011;7150;53.514;9.988;2023-07-02T07:04:16;17.37;;;6.30;;
14139;SDS011;7150;53.514;9.988;2023-07-02T07:06:41;22.47;;;6.63;;
14139;SDS011;7150;53.514;9.988;2023-07-02T07:09:08;21.07;;;7.30;;
14139;SDS011;7150;53.514;9.988;2023-07-02T07:11:33;16.87;;;6.47;;
14139;SDS011;7150;53.514;9.988;2023-07-02T07:13:59;27.43;;;7.43;;
14139;SDS011;7150;53.514;9.988;2023-07-02T07:16:25;18.00;;;7.13;;
14139;SDS011;7150;53.514;9.988;2023-07-02T07:18:50;25.40;;;7.60;;
14139;SDS011;7150;53.514;9.988;2023-07-02T07:21:16;18.37;;;6.03;;
14139;SDS011;7150;53.514;9.988;2023-07-02T07:23:41;17.20;;;7.13;;
14139;SDS011;7150;53.514;9.988;2023-07-02T07:26:07;14.50;;;6.40;;
14139;SDS011;7150;53.514;9.988;2023-07-02T07:28:32;13.73;;;6.30;;
14139;SDS011;7150;53.514;9.988;2023-07-02T07:30:58;18.23;;;6.97;;
14139;SDS011;7150;53.514;9.988;2023-07-02T07:33:23;17.03;;;7.00;;
14139;SDS011;7150;53.514;9.988;2023-07-02T07:35:49;14.10;;;6.27;;
14139;SDS011;7150;53.514;9.988;2023-07-02T07:38:14;23.63;;;7.50;;
14139;SDS011;7150;53.514;9.988;2023-07-02T07:40:40;19.67;;;7.17;;
14139;SDS011;7150;53.514;9.988;2023-07-02T07:43:06;17.07;;;6.40;;
14139;SDS011;7150;53.514;9.988;2023-07-02T07:45:31;17.20;;;6.10;;
14139;SDS011;7150;53.514;9.988;2023-07-02T07:47:58;22.17;;;6.63;;
14139;SDS011;7150;53.514;9.988;2023-07-02T07:50:23;18.80;;;6.00;;
14139;SDS011;7150;53.514;9.988;2023-07-02T07:52:49;16.57;;;6.17;;
14139;SDS011;7150;53.514;9.988;2023-07-02T07:55:16;20.70;;;7.00;;
14139;SDS011;7150;53.514;9.988;2023-07-02T07:57:41;18.67;;;6.67;;
14139;SDS011;7150;53.514;9.988;2023-07-02T08:00:07;18.30;;;6.37;;
14139;SDS011;7150;53.514;9.988;2023-07-02T08:02:34;11.53;;;5.80;;
14139;SDS011;7150;53.514;9.988;2023-07-02T08:05:00;14.50;;;5.33;;
14139;SDS011;7150;53.514;9.988;2023-07-02T08:07:26;17.90;;;6.40;;
14139;SDS011;7150;53.514;9.988;2023-07-02T08:09:52;15.87;;;6.30;;
14139;SDS011;7150;53.514;9.988;2023-07-02T08:12:17;15.97;;;5.73;;
14139;SDS011;7150;53.514;9.988;2023-07-02T08:14:43;16.23;;;5.97;;
14139;SDS011;7150;53.514;9.988;2023-07-02T08:17:08;13.67;;;5.40;;
14139;SDS011;7150;53.514;9.988;2023-07-02T08:19:34;15.13;;;6.10;;
14139;SDS011;7150;53.514;9.988;2023-07-02T08:21:59;14.63;;;5.50;;
14139;SDS011;7150;53.514;9.988;2023-07-02T08:24:25;14.77;;;5.93;;
14139;SDS011;7150;53.514;9.988;2023-07-02T08:26:50;10.03;;;5.27;;
14139;SDS011;7150;53.514;9.988;2023-07-02T08:29:16;13.83;;;5.40;;
14139;SDS011;7150;53.514;9.988;2023-07-02T08:31:41;12.33;;;5.00;;
14139;SDS011;7150;53.514;9.988;2023-07-02T08:34:08;12.40;;;4.93;;
14139;SDS011;7150;53.514;9.988;2023-07-02T08:36:33;15.87;;;5.30;;
14139;SDS011;7150;53.514;9.988;2023-07-02T08:38:59;13.43;;;4.97;;
14139;SDS011;7150;53.514;9.988;2023-07-02T08:41:24;11.77;;;4.40;;
14139;SDS011;7150;53.514;9.988;2023-07-02T08:43:50;9.27;;;4.80;;
14139;SDS011;7150;53.514;9.988;2023-07-02T08:46:20;11.70;;;4.73;;
14139;SDS011;7150;53.514;9.988;2023-07-02T08:48:46;12.57;;;4.53;;
14139;SDS011;7150;53.514;9.988;2023-07-02T08:51:12;13.43;;;4.63;;
14139;SDS011;7150;53.514;9.988;2023-07-02T08:53:37;10.80;;;4.40;;
14139;SDS011;7150;53.514;9.988;2023-07-02T08:56:03;13.40;;;4.63;;
14139;SDS011;7150;53.514;9.988;2023-07-02T08:58:29;10.27;;;4.40;;
14139;SDS011;7150;53.514;9.988;2023-07-02T09:01:07;7.70;;;3.90;;
14139;SDS011;7150;53.514;9.988;2023-07-02T09:03:37;14.67;;;4.20;;
14139;SDS011;7150;53.514;9.988;2023-07-02T09:06:07;12.33;;;4.10;;
14139;SDS011;7150;53.514;9.988;2023-07-02T09:08:33;8.23;;;3.97;;
14139;SDS011;7150;53.514;9.988;2023-07-02T09:11:09;9.80;;;4.50;;
14139;SDS011;7150;53.514;9.988;2023-07-02T09:16:08;13.00;;;4.43;;
14139;SDS011;7150;53.514;9.988;2023-07-02T09:18:34;14.00;;;4.43;;
14139;SDS011;7150;53.514;9.988;2023-07-02T09:21:00;11.27;;;4.40;;
14139;SDS011;7150;53.514;9.988;2023-07-02T09:23:34;7.93;;;4.30;;
14139;SDS011;7150;53.514;9.988;2023-07-02T09:26:02;13.57;;;4.53;;
14139;SDS011;7150;53.514;9.988;2023-07-02T09:28:28;10.30;;;4.43;;
14139;SDS011;7150;53.514;9.988;2023-07-02T09:30:54;12.40;;;4.70;;
14139;SDS011;7150;53.514;9.988;2023-07-02T09:33:24;12.70;;;4.60;;
14139;SDS011;7150;53.514;9.988;2023-07-02T09:35:53;9.90;;;4.40;;
14139;SDS011;7150;53.514;9.988;2023-07-02T09:38:19;11.77;;;5.07;;
14139;SDS011;7150;53.514;9.988;2023-07-02T09:40:47;11.10;;;4.93;;
14139;SDS011;7150;53.514;9.988;2023-07-02T09:43:16;14.43;;;4.63;;
14139;SDS011;7150;53.514;9.988;2023-07-02T09:45:44;15.63;;;5.30;;
14139;SDS011;7150;53.514;9.988;2023-07-02T09:48:14;12.97;;;4.80;;
14139;SDS011;7150;53.514;9.988;2023-07-02T09:50:42;11.13;;;4.23;;
14139;SDS011;7150;53.514;9.988;2023-07-02T09:53:10;9.33;;;3.90;;
14139;SDS011;7150;53.514;9.988;2023-07-02T09:55:39;12.50;;;4.10;;
14139;SDS011;7150;53.514;9.988;2023-07-02T09:58:07;10.47;;;4.37;;
14139;SDS011;7150;53.514;9.988;2023-07-02T10:00:32;12.00;;;4.77;;
14139;SDS011;7150;53.514;9.988;2023-07-02T10:02:59;14.07;;;4.03;;
14139;SDS011;7150;53.514;9.988;2023-07-02T10:05:28;10.47;;;3.93;;
14139;SDS011;7150;53.514;9.988;2023-07-02T10:07:55;12.33;;;4.80;;
14139;SDS011;7150;53.514;9.988;2023-07-02T10:10:36;12.60;;;4.13;;
14139;SDS011;7150;53.514;9.988;2023-07-02T10:13:01;10.13;;;4.33;;
14139;SDS011;7150;53.514;9.988;2023-07-02T10:15:28;8.90;;;3.70;;
14139;SDS011;7150;53.514;9.988;2023-07-02T10:17:58;11.93;;;4.23;;
14139;SDS011;7150;53.514;9.988;2023-07-02T10:20:34;13.07;;;4.57;;
14139;SDS011;7150;53.514;9.988;2023-07-02T10:23:03;8.97;;;4.10;;
14139;SDS011;7150;53.514;9.988;2023-07-02T10:25:30;12.97;;;4.23;;
14139;SDS011;7150;53.514;9.988;2023-07-02T10:27:57;7.13;;;3.80;;
14139;SDS011;7150;53.514;9.988;2023-07-02T10:30:31;10.83;;;3.63;;
14139;SDS011;7150;53.514;9.988;2023-07-02T10:33:11;9.10;;;3.50;;
14139;SDS011;7150;53.514;9.988;2023-07-02T10:35:39;8.93;;;3.53;;
14139;SDS011;7150;53.514;9.988;2023-07-02T10:38:25;8.87;;;4.00;;
14139;SDS011;7150;53.514;9.988;2023-07-02T10:40:54;8.47;;;3.67;;
14139;SDS011;7150;53.514;9.988;2023-07-02T10:43:27;8.87;;;3.73;;
14139;SDS011;7150;53.514;9.988;2023-07-02T10:45:54;11.20;;;3.43;;
14139;SDS011;7150;53.514;9.988;2023-07-02T10:48:20;10.93;;;3.63;;
14139;SDS011;7150;53.514;9.988;2023-07-02T10:50:46;8.60;;;3.50;;
14139;SDS011;7150;53.514;9.988;2023-07-02T10:53:17;10.40;;;4.03;;
14139;SDS011;7150;53.514;9.988;2023-07-02T10:55:44;86.37;;;8.73;;
14139;SDS011;7150;53.514;9.988;2023-07-02T10:58:10;18.80;;;4.03;;
14139;SDS011;7150;53.514;9.988;2023-07-02T11:00:46;9.47;;;3.10;;
14139;SDS011;7150;53.514;9.988;2023-07-02T11:03:30;10.20;;;2.80;;
14139;SDS011;7150;53.514;9.988;2023-07-02T11:05:56;13.03;;;2.87;;
14139;SDS011;7150;53.514;9.988;2023-07-02T11:08:21;9.53;;;3.50;;
14139;SDS011;7150;53.514;9.988;2023-07-02T11:10:48;11.57;;;3.60;;
14139;SDS011;7150;53.514;9.988;2023-07-02T11:13:14;9.67;;;2.80;;
14139;SDS011;7150;53.514;9.988;2023-07-02T11:15:44;11.70;;;3.47;;
14139;SDS011;7150;53.514;9.988;2023-07-02T11:18:13;8.07;;;3.10;;
14139;SDS011;7150;53.514;9.988;2023-07-02T11:20:40;12.07;;;3.37;;
14139;SDS011;7150;53.514;9.988;2023-07-02T11:25:58;8.57;;;2.80;;
14139;SDS011;7150;53.514;9.988;2023-07-02T11:28:24;7.93;;;3.00;;
14139;SDS011;7150;53.514;9.988;2023-07-02T11:30:51;9.47;;;3.47;;
14139;SDS011;7150;53.514;9.988;2023-07-02T11:33:16;5.40;;;2.67;;
14139;SDS011;7150;53.514;9.988;2023-07-02T11:35:42;6.73;;;2.60;;
14139;SDS011;7150;53.514;9.988;2023-07-02T11:38:11;9.23;;;2.67;;
14139;SDS011;7150;53.514;9.988;2023-07-02T11:40:36;8.03;;;2.60;;
14139;SDS011;7150;53.514;9.988;2023-07-02T11:43:02;8.20;;;2.40;;
14139;SDS011;7150;53.514;9.988;2023-07-02T11:45:27;8.17;;;2.90;;
14139;SDS011;7150;53.514;9.988;2023-07-02T11:47:53;6.57;;;2.30;;
14139;SDS011;7150;53.514;9.988;2023-07-02T11:50:19;5.87;;;2.50;;
14139;SDS011;7150;53.514;9.988;2023-07-02T11:52:45;5.70;;;2.63;;
14139;SDS011;7150;53.514;9.988;2023-07-02T11:55:10;5.53;;;2.47;;
14139;SDS011;7150;53.514;9.988;2023-07-02T11:57:36;7.77;;;3.57;;
14139;SDS011;7150;53.514;9.988;2023-07-02T12:00:01;7.17;;;2.73;;
14139;SDS011;7150;53.514;9.988;2023-07-02T12:02:27;6.33;;;2.40;;
14139;SDS011;7150;53.514;9.988;2023-07-02T12:04:52;9.97;;;3.17;;
14139;SDS011;7150;53.514;9.988;2023-07-02T12:07:18;8.70;;;2.77;;
14139;SDS011;7150;53.514;9.988;2023-07-02T12:09:43;9.47;;;2.40;;
14139;SDS011;7150;53.514;9.988;2023-07-02T12:12:10;13.87;;;3.23;;
14139;SDS011;7150;53.514;9.988;2023-07-02T12:14:35;8.07;;;2.77;;
14139;SDS011;7150;53.514;9.988;2023-07-02T12:17:02;7.70;;;2.70;;
14139;SDS011;7150;53.514;9.988;2023-07-02T12:19:28;7.07;;;2.73;;
14139;SDS011;7150;53.514;9.988;2023-07-02T12:21:53;6.27;;;2.50;;
14139;SDS011;7150;53.514;9.988;2023-07-02T12:24:19;7.37;;;2.90;;
14139;SDS011;7150;53.514;9.988;2023-07-02T12:26:44;12.83;;;3.07;;
14139;SDS011;7150;53.514;9.988;2023-07-02T12:29:10;13.10;;;2.80;;
14139;SDS011;7150;53.514;9.988;2023-07-02T12:31:35;15.63;;;3.53;;
14139;SDS011;7150;53.514;9.988;2023-07-02T12:34:01;7.00;;;2.40;;
14139;SDS011;7150;53.514;9.988;2023-07-02T12:36:28;8.90;;;3.17;;
14139;SDS011;7150;53.514;9.988;2023-07-02T12:38:53;8.17;;;2.67;;
14139;SDS011;7150;53.514;9.988;2023-07-02T12:41:19;6.37;;;2.57;;
14139;SDS011;7150;53.514;9.988;2023-07-02T12:43:44;11.30;;;2.60;;
14139;SDS011;7150;53.514;9.988;2023-07-02T12:46:10;5.80;;;2.70;;
14139;SDS011;7150;53.514;9.988;2023-07-02T12:48:35;9.03;;;2.80;;
14139;SDS011;7150;53.514;9.988;2023-07-02T12:51:01;8.50;;;3.03;;
14139;SDS011;7150;53.514;9.988;2023-07-02T12:53:26;7.03;;;2.53;;
14139;SDS011;7150;53.514;9.988;2023-07-02T12:55:52;5.87;;;2.83;;
14139;SDS011;7150;53.514;9.988;2023-07-02T12:58:19;6.40;;;2.80;;
14139;SDS011;7150;53.514;9.988;2023-07-02T13:00:46;9.37;;;2.37;;
14139;SDS011;7150;53.514;9.988;2023-07-02T13:03:12;5.43;;;2.70;;
14139;SDS011;7150;53.514;9.988;2023-07-02T13:05:38;5.53;;;2.50;;
14139;SDS011;7150;53.514;9.988;2023-07-02T13:08:04;4.43;;;2.50;;
14139;SDS011;7150;53.514;9.988;2023-07-02T13:10:30;4.23;;;2.03;;
14139;SDS011;7150;53.514;9.988;2023-07-02T13:12:57;10.30;;;3.00;;
14139;SDS011;7150;53.514;9.988;2023-07-02T13:15:22;4.23;;;1.90;;
14139;SDS011;7150;53.514;9.988;2023-07-02T13:17:48;5.17;;;2.60;;
14139;SDS011;7150;53.514;9.988;2023-07-02T13:20:13;10.93;;;2.80;;
14139;SDS011;7150;53.514;9.988;2023-07-02T13:22:39;9.77;;;2.90;;
14139;SDS011;7150;53.514;9.988;2023-07-02T13:25:05;10.10;;;2.53;;
14139;SDS011;7150;53.514;9.988;2023-07-02T13:27:31;9.20;;;2.30;;
14139;SDS011;7150;53.514;9.988;2023-07-02T13:29:56;10.80;;;2.87;;
14139;SDS011;7150;53.514;9.988;2023-07-02T13:32:22;7.97;;;2.37;;
14139;SDS011;7150;53.514;9.988;2023-07-02T13:34:47;5.73;;;2.17;;
14139;SDS011;7150;53.514;9.988;2023-07-02T13:37:13;7.10;;;2.60;;
14139;SDS011;7150;53.514;9.988;2023-07-02T13:39:42;7.97;;;2.63;;
14139;SDS011;7150;53.514;9.988;2023-07-02T13:42:08;10.00;;;2.53;;
14139;SDS011;7150;53.514;9.988;2023-07-02T13:44:34;9.67;;;2.70;;
14139;SDS011;7150;53.514;9.988;2023-07-02T13:46:59;8.87;;;2.37;;
14139;SDS011;7150;53.514;9.988;2023-07-02T13:49:25;8.67;;;2.27;;
14139;SDS011;7150;53.514;9.988;2023-07-02T13:51:50;7.87;;;2.17;;
14139;SDS011;7150;53.514;9.988;2023-07-02T13:54:16;7.70;;;2.33;;
14139;SDS011;7150;53.514;9.988;2023-07-02T13:56:43;5.83;;;2.10;;
14139;SDS011;7150;53.514;9.988;2023-07-02T13:59:09;5.63;;;2.40;;
14139;SDS011;7150;53.514;9.988;2023-07-02T14:01:34;7.87;;;2.37;;
14139;SDS011;7150;53.514;9.988;2023-07-02T14:04:00;11.53;;;2.67;;
14139;SDS011;7150;53.514;9.988;2023-07-02T14:06:27;6.10;;;2.43;;
14139;SDS011;7150;53.514;9.988;2023-07-02T14:08:53;9.87;;;2.50;;
14139;SDS011;7150;53.514;9.988;2023-07-02T14:11:19;8.73;;;2.80;;
14139;SDS011;7150;53.514;9.988;2023-07-02T14:13:44;7.90;;;2.70;;
14139;SDS011;7150;53.514;9.988;2023-07-02T14:16:10;6.03;;;2.40;;
14139;SDS011;7150;53.514;9.988;2023-07-02T14:18:35;10.53;;;2.40;;
14139;SDS011;7150;53.514;9.988;2023-07-02T14:21:01;7.47;;;2.50;;
14139;SDS011;7150;53.514;9.988;2023-07-02T14:23:27;11.03;;;2.43;;
14139;SDS011;7150;53.514;9.988;2023-07-02T14:25:53;9.37;;;3.00;;
14139;SDS011;7150;53.514;9.988;2023-07-02T14:28:18;7.33;;;2.73;;
14139;SDS011;7150;53.514;9.988;2023-07-02T14:30:44;9.27;;;2.80;;
14139;SDS011;7150;53.514;9.988;2023-07-02T14:33:10;9.13;;;2.37;;
14139;SDS011;7150;53.514;9.988;2023-07-02T14:35:35;5.83;;;2.27;;
14139;SDS011;7150;53.514;9.988;2023-07-02T14:38:01;7.40;;;3.00;;
14139;SDS011;7150;53.514;9.988;2023-07-02T14:40:27;6.03;;;2.23;;
14139;SDS011;7150;53.514;9.988;2023-07-02T14:42:52;8.17;;;2.63;;
14139;SDS011;7150;53.514;9.988;2023-07-02T14:45:18;7.53;;;2.50;;
14139;SDS011;7150;53.514;9.988;2023-07-02T14:47:43;12.80;;;2.80;;
14139;SDS011;7150;53.514;9.988;2023-07-02T14:50:09;12.07;;;2.60;;
14139;SDS011;7150;53.514;9.988;2023-07-02T14:52:34;8.73;;;2.50;;
14139;SDS011;7150;53.514;9.988;2023-07-02T14:55:00;6.73;;;2.57;;